Terminal Aerodrome Forecast
Issued by NWS

Home | Current Version | Previous Version | Text Only | Print | Product List | Glossary On
Versions: 1 2 3 4 5 6 7 8 9 10 11 12 13 14 15 16 17 18 19 20
000
FTUS41 KCAR 051132
TAFBHB
TAF
KBHB 051132Z 0512/0612 04017KT P6SM OVC007
     FM051700 02010KT P6SM OVC015
     FM052200 04010G20KT 3SM -RA OVC007
     FM060300 02015G25KT P6SM OVC003
     FM061100 36012G22KT P6SM BKN015=

USA.gov is the U.S. government's official web portal to all federal, state and local government web resources and services.